Map

Track Data

SID SEASON NUMBER BASIN SUBBASIN NAME ISO_TIME NATURE LAT LON WMO_WIND WMO_PRES WMO_AGENCY TRACK_TYPE DIST2LAND LANDFALL IFLAG USA_AGENCY USA_ATCF_ID USA_LAT USA_LON USA_RECORD USA_STATUS USA_WIND USA_PRES USA_SSHS USA_R34_NE USA_R34_SE USA_R34_SW USA_R34_NW USA_R50_NE USA_R50_SE USA_R50_SW USA_R50_NW USA_R64_NE USA_R64_SE USA_R64_SW USA_R64_NW USA_POCI USA_ROCI USA_RMW USA_EYE TOKYO_LAT TOKYO_LON TOKYO_GRADE TOKYO_WIND TOKYO_PRES TOKYO_R50_DIR TOKYO_R50_LONG TOKYO_R50_SHORT TOKYO_R30_DIR TOKYO_R30_LONG TOKYO_R30_SHORT TOKYO_LAND CMA_LAT CMA_LON CMA_CAT CMA_WIND CMA_PRES HKO_LAT HKO_LON HKO_CAT HKO_WIND HKO_PRES NEWDELHI_LAT NEWDELHI_LON NEWDELHI_GRADE NEWDELHI_WIND NEWDELHI_PRES NEWDELHI_CI NEWDELHI_DP NEWDELHI_POCI REUNION_LAT REUNION_LON REUNION_TYPE REUNION_WIND REUNION_PRES REUNION_TNUM REUNION_CI REUNION_RMW REUNION_R34_NE REUNION_R34_SE REUNION_R34_SW REUNION_R34_NW REUNION_R50_NE REUNION_R50_SE REUNION_R50_SW REUNION_R50_NW REUNION_R64_NE REUNION_R64_SE REUNION_R64_SW REUNION_R64_NW BOM_LAT BOM_LON BOM_TYPE BOM_WIND BOM_PRES BOM_TNUM BOM_CI BOM_RMW BOM_R34_NE BOM_R34_SE BOM_R34_SW BOM_R34_NW BOM_R50_NE BOM_R50_SE BOM_R50_SW BOM_R50_NW BOM_R64_NE BOM_R64_SE BOM_R64_SW BOM_R64_NW BOM_ROCI BOM_POCI BOM_EYE BOM_POS_METHOD BOM_PRES_METHOD NADI_LAT NADI_LON NADI_CAT NADI_WIND NADI_PRES WELLINGTON_LAT WELLINGTON_LON WELLINGTON_WIND WELLINGTON_PRES DS824_LAT DS824_LON DS824_STAGE DS824_WIND DS824_PRES TD9636_LAT TD9636_LON TD9636_STAGE TD9636_WIND TD9636_PRES TD9635_LAT TD9635_LON TD9635_WIND TD9635_PRES TD9635_ROCI NEUMANN_LAT NEUMANN_LON NEUMANN_CLASS NEUMANN_WIND NEUMANN_PRES MLC_LAT MLC_LON MLC_CLASS MLC_WIND MLC_PRES USA_GUST BOM_GUST BOM_GUST_PER REUNION_GUST REUNION_GUST_PER USA_SEAHGT USA_SEARAD_NE USA_SEARAD_SE USA_SEARAD_SW USA_SEARAD_NW STORM_SPEED STORM_DIR
1984244N37293 1984 73 NA NA CESAR 1984-08-31 00:00:00 SS 36.6000 -66.9000 25 1008 hurdat_atl main 627 583 O_____________ hurdat_atl AL081984 36.6000 -66.9000 SD 25 1008 -2 14 31
1984244N37293 1984 73 NA NA CESAR 1984-08-31 03:00:00 SS 37.2058 -66.4395 main 587 551 P_____________ AL081984 37.2058 -66.4395 SD 27 1006 -2 14 31
1984244N37293 1984 73 NA NA CESAR 1984-08-31 06:00:00 SS 37.8000 -66.0000 30 1005 hurdat_atl main 551 525 O_____________ hurdat_atl AL081984 37.8000 -66.0000 SD 30 1005 -2 14 30
1984244N37293 1984 73 NA NA CESAR 1984-08-31 09:00:00 SS 38.3713 -65.5732 main 523 512 P_____________ AL081984 38.3713 -65.5732 SD 32 1003 -2 14 35
1984244N37293 1984 73 NA NA CESAR 1984-08-31 12:00:00 TS 38.9000 -65.0000 35 1001 hurdat_atl main 512 474 O_____________ hurdat_atl AL081984 38.9000 -65.0000 TS 35 1001 0 15 48
1984244N37293 1984 73 NA NA CESAR 1984-08-31 15:00:00 TS 39.3729 -64.1248 main 466 446 P_____________ AL081984 39.3729 -64.1248 TS 35 1000 0 17 58
1984244N37293 1984 73 NA NA CESAR 1984-08-31 18:00:00 TS 39.8000 -63.1000 35 999 hurdat_atl main 450 444 O_____________ hurdat_atl AL081984 39.8000 -63.1000 TS 35 999 0 17 62
1984244N37293 1984 73 NA NA CESAR 1984-08-31 21:00:00 TS 40.1841 -62.1124 main 452 452 P_____________ AL081984 40.1841 -62.1124 TS 37 999 0 17 62
1984244N37293 1984 73 NA NA CESAR 1984-09-01 00:00:00 TS 40.6000 -61.1000 40 999 hurdat_atl main 467 451 O_____________ hurdat_atl AL081984 40.6000 -61.1000 TS 40 999 0 18 59
1984244N37293 1984 73 NA NA CESAR 1984-09-01 03:00:00 TS 41.1193 -60.0566 main 455 421 P_____________ AL081984 41.1193 -60.0566 TS 40 998 0 19 55
1984244N37293 1984 73 NA NA CESAR 1984-09-01 06:00:00 TS 41.7000 -59.0000 40 998 hurdat_atl main 424 406 O_____________ hurdat_atl AL081984 41.7000 -59.0000 TS 40 998 0 20 53
1984244N37293 1984 73 NA NA CESAR 1984-09-01 09:00:00 TS 42.2992 -57.9415 main 411 403 P_____________ AL081984 42.2992 -57.9415 TS 40 998 0 20 52
1984244N37293 1984 73 NA NA CESAR 1984-09-01 12:00:00 TS 42.9000 -56.9000 40 998 hurdat_atl main 408 378 O_____________ hurdat_atl AL081984 42.9000 -56.9000 TS 40 998 0 19 52
1984244N37293 1984 73 NA NA CESAR 1984-09-01 15:00:00 TS 43.4721 -55.8616 main 367 306 P_____________ AL081984 43.4721 -55.8616 TS 40 998 0 18 53
1984244N37293 1984 73 NA NA CESAR 1984-09-01 18:00:00 TS 44.0000 -54.9000 40 998 hurdat_atl main 306 236 O_____________ hurdat_atl AL081984 44.0000 -54.9000 TS 40 998 0 16 52
1984244N37293 1984 73 NA NA CESAR 1984-09-01 21:00:00 TS 44.4864 -54.0610 main 236 189 P_____________ AL081984 44.4864 -54.0610 TS 42 998 0 15 52
1984244N37293 1984 73 NA NA CESAR 1984-09-02 00:00:00 TS 44.9000 -53.3000 45 998 hurdat_atl main 189 160 O_____________ hurdat_atl AL081984 44.9000 -53.3000 TS 45 998 0 13 56
1984244N37293 1984 73 NA NA CESAR 1984-09-02 03:00:00 TS 45.2295 -52.5336 main 164 153 P_____________ AL081984 45.2295 -52.5336 TS 45 997 0 12 60
1984244N37293 1984 73 NA NA CESAR 1984-09-02 06:00:00 TS 45.5000 -51.8000 45 997 hurdat_atl main 162 162 O_____________ hurdat_atl AL081984 45.5000 -51.8000 TS 45 997 0 11 61
1984244N37293 1984 73 NA NA CESAR 1984-09-02 09:00:00 TS 45.7793 -51.0998 main 182 182 P_____________ AL081984 45.7793 -51.0998 TS 47 995 0 11 63
1984244N37293 1984 73 NA NA CESAR 1984-09-02 12:00:00 TS 46.0000 -50.4000 50 994 hurdat_atl main 217 217 O_____________ hurdat_atl AL081984 46.0000 -50.4000 TS 50 994 0 11 71
1984244N37293 1984 73 NA NA CESAR 1984-09-02 15:00:00 TS 46.1287 -49.6625 main 263 263 P_____________ AL081984 46.1287 -49.6625 TS 50 991 0 11 79
1984244N37293 1984 73 NA NA CESAR 1984-09-02 18:00:00 ET 46.2000 -48.9000 50 989 hurdat_atl main 315 O_____________ hurdat_atl AL081984 46.2000 -48.9000 EX 50 989 -4 11 82

About IBTrACS Database

This database is a web-friendly format of International Best Track Archive for Climate Stewardship (IBTrACS), a global best track data archive curated by NOAA dating back to 1842.

Updated: 2021-11-26